sensor_id;sensor_type;location;lat;lon;timestamp;pressure;altitude;pressure_sealevel;temperature;humidity
43814;BME280;29669;55.706;37.656;2023-05-12T00:01:41;100544.59;;;11.51;55.45
43814;BME280;29669;55.706;37.656;2023-05-12T00:04:09;100546.25;;;11.52;55.33
43814;BME280;29669;55.706;37.656;2023-05-12T00:06:37;100546.91;;;11.54;55.36
43814;BME280;29669;55.706;37.656;2023-05-12T00:09:05;100549.66;;;11.53;55.43
43814;BME280;29669;55.706;37.656;2023-05-12T00:11:32;100544.31;;;11.54;55.36
43814;BME280;29669;55.706;37.656;2023-05-12T00:14:00;100546.91;;;11.54;55.40
43814;BME280;29669;55.706;37.656;2023-05-12T00:16:28;100556.69;;;11.60;55.39
43814;BME280;29669;55.706;37.656;2023-05-12T00:18:56;100553.81;;;11.63;55.21
43814;BME280;29669;55.706;37.656;2023-05-12T00:21:24;100547.63;;;11.64;55.09
43814;BME280;29669;55.706;37.656;2023-05-12T00:23:52;100553.00;;;11.63;55.27
43814;BME280;29669;55.706;37.656;2023-05-12T00:26:20;100543.69;;;11.60;55.24
43814;BME280;29669;55.706;37.656;2023-05-12T00:28:47;100547.13;;;11.61;55.27
43814;BME280;29669;55.706;37.656;2023-05-12T00:31:15;100545.13;;;11.55;55.40
43814;BME280;29669;55.706;37.656;2023-05-12T00:33:43;100541.50;;;11.48;55.13
43814;BME280;29669;55.706;37.656;2023-05-12T00:36:11;100546.34;;;11.43;55.28
43814;BME280;29669;55.706;37.656;2023-05-12T00:38:38;100539.28;;;11.35;55.30
43814;BME280;29669;55.706;37.656;2023-05-12T00:41:07;100537.94;;;11.31;55.64
43814;BME280;29669;55.706;37.656;2023-05-12T00:43:35;100541.22;;;11.33;55.30
43814;BME280;29669;55.706;37.656;2023-05-12T00:46:04;100539.72;;;11.30;55.38
43814;BME280;29669;55.706;37.656;2023-05-12T00:48:32;100539.78;;;11.21;55.58
43814;BME280;29669;55.706;37.656;2023-05-12T00:51:02;100532.56;;;11.15;55.57
43814;BME280;29669;55.706;37.656;2023-05-12T00:53:31;100544.63;;;11.16;55.65
43814;BME280;29669;55.706;37.656;2023-05-12T00:56:16;100536.97;;;11.14;55.57
43814;BME280;29669;55.706;37.656;2023-05-12T00:58:46;100539.09;;;11.19;55.25
43814;BME280;29669;55.706;37.656;2023-05-12T01:01:15;100536.66;;;11.17;55.29
43814;BME280;29669;55.706;37.656;2023-05-12T01:03:45;100540.25;;;11.16;55.16
43814;BME280;29669;55.706;37.656;2023-05-12T01:06:32;100542.16;;;11.14;55.09
43814;BME280;29669;55.706;37.656;2023-05-12T01:09:07;100547.38;;;11.14;55.34
43814;BME280;29669;55.706;37.656;2023-05-12T01:11:36;100536.66;;;11.17;55.05
43814;BME280;29669;55.706;37.656;2023-05-12T01:14:05;100537.50;;;11.18;54.90
43814;BME280;29669;55.706;37.656;2023-05-12T01:16:38;100544.09;;;11.12;55.06
43814;BME280;29669;55.706;37.656;2023-05-12T01:19:09;100546.28;;;11.07;55.08
43814;BME280;29669;55.706;37.656;2023-05-12T01:21:41;100544.31;;;11.01;54.99
43814;BME280;29669;55.706;37.656;2023-05-12T01:24:10;100544.91;;;10.95;55.31
43814;BME280;29669;55.706;37.656;2023-05-12T01:26:42;100549.25;;;10.95;55.27
43814;BME280;29669;55.706;37.656;2023-05-12T01:29:11;100539.03;;;10.93;55.39
43814;BME280;29669;55.706;37.656;2023-05-12T01:31:40;100547.19;;;10.98;55.12
43814;BME280;29669;55.706;37.656;2023-05-12T01:34:16;100546.09;;;11.01;55.14
43814;BME280;29669;55.706;37.656;2023-05-12T01:36:49;100546.09;;;11.01;54.84
43814;BME280;29669;55.706;37.656;2023-05-12T01:39:16;100546.91;;;11.01;54.65
43814;BME280;29669;55.706;37.656;2023-05-12T01:41:44;100544.97;;;11.03;54.93
43814;BME280;29669;55.706;37.656;2023-05-12T01:44:12;100545.50;;;11.07;54.81
43814;BME280;29669;55.706;37.656;2023-05-12T01:46:39;100542.75;;;11.08;54.57
43814;BME280;29669;55.706;37.656;2023-05-12T01:49:07;100546.69;;;11.12;54.54
43814;BME280;29669;55.706;37.656;2023-05-12T01:51:36;100539.84;;;11.11;54.65
43814;BME280;29669;55.706;37.656;2023-05-12T01:54:04;100549.81;;;11.16;54.41
43814;BME280;29669;55.706;37.656;2023-05-12T01:56:36;100538.59;;;11.15;54.41
43814;BME280;29669;55.706;37.656;2023-05-12T01:59:04;100537.75;;;11.15;54.38
43814;BME280;29669;55.706;37.656;2023-05-12T02:01:41;100545.88;;;11.12;54.70
43814;BME280;29669;55.706;37.656;2023-05-12T02:04:13;100547.06;;;11.17;54.77
43814;BME280;29669;55.706;37.656;2023-05-12T02:06:42;100534.97;;;11.26;54.47
43814;BME280;29669;55.706;37.656;2023-05-12T02:09:10;100537.78;;;11.32;54.40
43814;BME280;29669;55.706;37.656;2023-05-12T02:11:38;100539.44;;;11.33;54.35
43814;BME280;29669;55.706;37.656;2023-05-12T02:14:07;100548.84;;;11.34;54.37
43814;BME280;29669;55.706;37.656;2023-05-12T02:16:35;100546.09;;;11.36;54.29
43814;BME280;29669;55.706;37.656;2023-05-12T02:19:03;100540.47;;;11.41;54.53
43814;BME280;29669;55.706;37.656;2023-05-12T02:21:32;100544.84;;;11.40;54.42
43814;BME280;29669;55.706;37.656;2023-05-12T02:24:00;100545.81;;;11.39;54.70
43814;BME280;29669;55.706;37.656;2023-05-12T02:26:27;100542.25;;;11.40;54.49
43814;BME280;29669;55.706;37.656;2023-05-12T02:28:55;100541.13;;;11.43;54.68
43814;BME280;29669;55.706;37.656;2023-05-12T02:31:23;100539.72;;;11.48;54.72
43814;BME280;29669;55.706;37.656;2023-05-12T02:33:50;100545.78;;;11.57;54.63
43814;BME280;29669;55.706;37.656;2023-05-12T02:36:19;100544.25;;;11.64;54.36
43814;BME280;29669;55.706;37.656;2023-05-12T02:38:46;100540.09;;;11.71;54.16
43814;BME280;29669;55.706;37.656;2023-05-12T02:41:14;100544.69;;;11.77;54.04
43814;BME280;29669;55.706;37.656;2023-05-12T02:43:42;100546.66;;;11.83;53.86
43814;BME280;29669;55.706;37.656;2023-05-12T02:46:10;100547.88;;;11.88;53.53
43814;BME280;29669;55.706;37.656;2023-05-12T02:48:38;100538.63;;;11.94;53.54
43814;BME280;29669;55.706;37.656;2023-05-12T02:51:06;100541.59;;;11.99;53.23
43814;BME280;29669;55.706;37.656;2023-05-12T02:53:34;100540.66;;;12.08;52.90
43814;BME280;29669;55.706;37.656;2023-05-12T02:56:02;100547.53;;;12.17;53.01
43814;BME280;29669;55.706;37.656;2023-05-12T02:58:30;100542.09;;;12.28;52.59
43814;BME280;29669;55.706;37.656;2023-05-12T03:00:58;100555.19;;;12.44;52.39
43814;BME280;29669;55.706;37.656;2023-05-12T03:03:37;100561.78;;;12.64;52.14
43814;BME280;29669;55.706;37.656;2023-05-12T03:06:05;100551.09;;;12.83;51.81
43814;BME280;29669;55.706;37.656;2023-05-12T03:08:34;100542.41;;;13.08;51.47
43814;BME280;29669;55.706;37.656;2023-05-12T03:11:02;100539.84;;;13.33;51.08
43814;BME280;29669;55.706;37.656;2023-05-12T03:13:30;100542.47;;;13.57;50.81
43814;BME280;29669;55.706;37.656;2023-05-12T03:15:58;100549.47;;;13.80;50.35
43814;BME280;29669;55.706;37.656;2023-05-12T03:18:29;100534.44;;;13.98;50.01
43814;BME280;29669;55.706;37.656;2023-05-12T03:20:57;100537.50;;;14.18;49.67
43814;BME280;29669;55.706;37.656;2023-05-12T03:23:25;100548.25;;;14.39;49.32
43814;BME280;29669;55.706;37.656;2023-05-12T03:25:54;100543.94;;;14.54;49.08
43814;BME280;29669;55.706;37.656;2023-05-12T03:28:22;100544.50;;;14.72;48.78
43814;BME280;29669;55.706;37.656;2023-05-12T03:30:51;100544.78;;;14.85;48.42
43814;BME280;29669;55.706;37.656;2023-05-12T03:33:20;100538.16;;;14.97;48.09
43814;BME280;29669;55.706;37.656;2023-05-12T03:35:50;100531.84;;;15.15;47.88
43814;BME280;29669;55.706;37.656;2023-05-12T03:38:18;100537.00;;;15.31;47.66
43814;BME280;29669;55.706;37.656;2023-05-12T03:40:48;100531.84;;;15.45;47.10
43814;BME280;29669;55.706;37.656;2023-05-12T03:43:20;100531.97;;;15.52;46.99
43814;BME280;29669;55.706;37.656;2023-05-12T03:45:48;100530.78;;;15.54;46.86
43814;BME280;29669;55.706;37.656;2023-05-12T03:48:15;100534.50;;;15.60;46.60
43814;BME280;29669;55.706;37.656;2023-05-12T03:50:43;100523.69;;;15.63;46.32
43814;BME280;29669;55.706;37.656;2023-05-12T03:53:11;100537.50;;;15.71;45.99
43814;BME280;29669;55.706;37.656;2023-05-12T03:55:38;100535.34;;;15.75;45.62
43814;BME280;29669;55.706;37.656;2023-05-12T04:00:34;100542.81;;;16.00;nan
43814;BME280;29669;55.706;37.656;2023-05-12T04:03:02;100529.78;;;16.07;nan
43814;BME280;29669;55.706;37.656;2023-05-12T04:05:30;100536.84;;;16.21;nan
43814;BME280;29669;55.706;37.656;2023-05-12T04:07:58;100535.41;;;16.33;nan
43814;BME280;29669;55.706;37.656;2023-05-12T04:12:53;100543.72;;;16.22;nan
43814;BME280;29669;55.706;37.656;2023-05-12T04:17:49;100535.78;;;16.16;nan
43814;BME280;29669;55.706;37.656;2023-05-12T04:22:46;100532.16;;;16.31;nan
43814;BME280;29669;55.706;37.656;2023-05-12T04:25:14;100526.03;;;16.39;nan
43814;BME280;29669;55.706;37.656;2023-05-12T04:27:42;100523.41;;;16.53;nan
43814;BME280;29669;55.706;37.656;2023-05-12T04:30:10;100527.94;;;16.59;nan
43814;BME280;29669;55.706;37.656;2023-05-12T04:32:40;100517.44;;;16.59;nan
43814;BME280;29669;55.706;37.656;2023-05-12T04:35:08;100522.31;;;16.62;nan
43814;BME280;29669;55.706;37.656;2023-05-12T04:37:37;100525.66;;;16.71;nan
43814;BME280;29669;55.706;37.656;2023-05-12T04:40:06;100520.56;;;16.69;nan
43814;BME280;29669;55.706;37.656;2023-05-12T04:42:35;100510.66;;;16.65;nan
43814;BME280;29669;55.706;37.656;2023-05-12T04:47:31;100527.34;;;16.78;nan
43814;BME280;29669;55.706;37.656;2023-05-12T04:49:59;100519.34;;;16.86;nan
43814;BME280;29669;55.706;37.656;2023-05-12T04:52:28;100522.88;;;16.93;nan
43814;BME280;29669;55.706;37.656;2023-05-12T04:59:51;100523.41;;;16.53;nan
43814;BME280;29669;55.706;37.656;2023-05-12T05:02:20;100539.75;;;16.41;nan
43814;BME280;29669;55.706;37.656;2023-05-12T05:07:15;100524.81;;;15.97;nan
43814;BME280;29669;55.706;37.656;2023-05-12T05:09:43;100520.84;;;15.87;nan
43814;BME280;29669;55.706;37.656;2023-05-12T05:12:12;100521.22;;;15.84;nan
43814;BME280;29669;55.706;37.656;2023-05-12T05:14:39;100517.13;;;15.81;nan
43814;BME280;29669;55.706;37.656;2023-05-12T05:17:08;100531.69;;;15.84;nan
43814;BME280;29669;55.706;37.656;2023-05-12T05:19:38;100531.31;;;15.87;nan
43814;BME280;29669;55.706;37.656;2023-05-12T05:22:21;100529.66;;;15.86;nan
43814;BME280;29669;55.706;37.656;2023-05-12T05:24:48;100537.00;;;15.90;nan
43814;BME280;29669;55.706;37.656;2023-05-12T05:27:19;100525.56;;;15.91;nan
43814;BME280;29669;55.706;37.656;2023-05-12T05:29:47;100536.47;;;15.95;nan
43814;BME280;29669;55.706;37.656;2023-05-12T05:32:16;100526.63;;;15.97;nan
43814;BME280;29669;55.706;37.656;2023-05-12T05:34:44;100529.97;;;16.06;nan
43814;BME280;29669;55.706;37.656;2023-05-12T05:37:12;100530.44;;;16.09;nan
43814;BME280;29669;55.706;37.656;2023-05-12T05:39:40;100537.94;;;16.12;nan
43814;BME280;29669;55.706;37.656;2023-05-12T05:42:08;100526.84;;;16.10;nan
43814;BME280;29669;55.706;37.656;2023-05-12T05:44:36;100524.66;;;16.14;nan
43814;BME280;29669;55.706;37.656;2023-05-12T05:47:04;100526.38;;;16.21;nan
43814;BME280;29669;55.706;37.656;2023-05-12T05:49:33;100528.91;;;16.29;nan
43814;BME280;29669;55.706;37.656;2023-05-12T05:52:01;100530.00;;;16.35;nan
43814;BME280;29669;55.706;37.656;2023-05-12T05:54:29;100531.72;;;16.42;nan
43814;BME280;29669;55.706;37.656;2023-05-12T05:56:58;100527.75;;;16.46;nan
43814;BME280;29669;55.706;37.656;2023-05-12T05:59:29;100526.66;;;16.55;nan
43814;BME280;29669;55.706;37.656;2023-05-12T06:01:57;100535.59;;;16.61;nan
43814;BME280;29669;55.706;37.656;2023-05-12T06:04:25;100526.19;;;16.66;nan
43814;BME280;29669;55.706;37.656;2023-05-12T06:06:53;100521.84;;;16.73;nan
43814;BME280;29669;55.706;37.656;2023-05-12T06:09:21;100520.47;;;16.77;nan
43814;BME280;29669;55.706;37.656;2023-05-12T06:11:49;100518.56;;;16.86;nan
43814;BME280;29669;55.706;37.656;2023-05-12T06:14:17;100524.50;;;16.94;nan
43814;BME280;29669;55.706;37.656;2023-05-12T06:16:47;100519.50;;;17.00;nan
43814;BME280;29669;55.706;37.656;2023-05-12T06:19:14;100516.75;;;17.08;nan
43814;BME280;29669;55.706;37.656;2023-05-12T06:21:43;100523.16;;;17.20;nan
43814;BME280;29669;55.706;37.656;2023-05-12T06:24:12;100517.41;;;17.31;nan
43814;BME280;29669;55.706;37.656;2023-05-12T06:26:41;100512.47;;;17.42;nan
43814;BME280;29669;55.706;37.656;2023-05-12T06:29:09;100517.63;;;17.50;nan
43814;BME280;29669;55.706;37.656;2023-05-12T06:31:37;100518.47;;;17.57;nan
43814;BME280;29669;55.706;37.656;2023-05-12T06:34:05;100517.31;;;17.60;nan
43814;BME280;29669;55.706;37.656;2023-05-12T06:36:32;100518.16;;;17.67;nan
43814;BME280;29669;55.706;37.656;2023-05-12T06:39:01;100516.78;;;17.71;nan
43814;BME280;29669;55.706;37.656;2023-05-12T06:41:29;100510.56;;;17.78;nan
43814;BME280;29669;55.706;37.656;2023-05-12T06:43:57;100513.84;;;17.87;nan
43814;BME280;29669;55.706;37.656;2023-05-12T06:46:27;100502.19;;;17.96;nan
43814;BME280;29669;55.706;37.656;2023-05-12T06:48:55;100508.34;;;18.10;nan
43814;BME280;29669;55.706;37.656;2023-05-12T06:51:22;100501.13;;;18.18;nan
43814;BME280;29669;55.706;37.656;2023-05-12T06:53:50;100501.16;;;18.25;nan
43814;BME280;29669;55.706;37.656;2023-05-12T06:56:18;100512.13;;;18.35;nan
43814;BME280;29669;55.706;37.656;2023-05-12T06:58:46;100501.09;;;18.46;nan
43814;BME280;29669;55.706;37.656;2023-05-12T07:01:14;100497.88;;;18.57;nan
43814;BME280;29669;55.706;37.656;2023-05-12T07:03:42;100501.16;;;18.65;nan
43814;BME280;29669;55.706;37.656;2023-05-12T07:06:11;100503.63;;;18.73;nan
43814;BME280;29669;55.706;37.656;2023-05-12T07:08:39;100508.50;;;18.83;nan
43814;BME280;29669;55.706;37.656;2023-05-12T07:11:07;100511.97;;;18.90;nan
43814;BME280;29669;55.706;37.656;2023-05-12T07:13:35;100505.09;;;18.96;nan
43814;BME280;29669;55.706;37.656;2023-05-12T07:16:03;100506.94;;;19.02;nan
43814;BME280;29669;55.706;37.656;2023-05-12T07:18:31;100508.75;;;19.08;nan
43814;BME280;29669;55.706;37.656;2023-05-12T07:20:59;100497.44;;;19.07;nan
43814;BME280;29669;55.706;37.656;2023-05-12T07:23:26;100504.53;;;19.13;nan
43814;BME280;29669;55.706;37.656;2023-05-12T07:25:54;100499.88;;;19.22;nan
43814;BME280;29669;55.706;37.656;2023-05-12T07:28:21;100492.78;;;19.29;nan
43814;BME280;29669;55.706;37.656;2023-05-12T07:30:49;100495.88;;;19.39;nan
43814;BME280;29669;55.706;37.656;2023-05-12T07:33:17;100484.13;;;19.48;nan
43814;BME280;29669;55.706;37.656;2023-05-12T07:35:45;100491.03;;;19.62;nan
43814;BME280;29669;55.706;37.656;2023-05-12T07:38:13;100494.25;;;19.77;nan
43814;BME280;29669;55.706;37.656;2023-05-12T07:40:41;100496.47;;;19.87;nan
43814;BME280;29669;55.706;37.656;2023-05-12T07:43:10;100485.50;;;19.90;nan
43814;BME280;29669;55.706;37.656;2023-05-12T07:45:37;100489.13;;;19.95;nan
43814;BME280;29669;55.706;37.656;2023-05-12T07:48:05;100494.19;;;20.03;nan
43814;BME280;29669;55.706;37.656;2023-05-12T07:50:33;100490.09;;;20.14;nan
43814;BME280;29669;55.706;37.656;2023-05-12T07:53:01;100493.75;;;20.26;nan
43814;BME280;29669;55.706;37.656;2023-05-12T07:55:28;100486.63;;;20.33;nan
43814;BME280;29669;55.706;37.656;2023-05-12T07:57:56;100478.28;;;20.42;nan
43814;BME280;29669;55.706;37.656;2023-05-12T08:00:24;100481.66;;;20.63;nan
43814;BME280;29669;55.706;37.656;2023-05-12T08:02:52;100489.50;;;20.76;nan
43814;BME280;29669;55.706;37.656;2023-05-12T08:05:20;100491.88;;;20.84;nan
43814;BME280;29669;55.706;37.656;2023-05-12T08:07:48;100489.03;;;20.85;nan
43814;BME280;29669;55.706;37.656;2023-05-12T08:10:16;100491.50;;;20.80;nan
43814;BME280;29669;55.706;37.656;2023-05-12T08:12:45;100487.47;;;20.78;nan
43814;BME280;29669;55.706;37.656;2023-05-12T08:15:12;100481.31;;;20.84;nan
43814;BME280;29669;55.706;37.656;2023-05-12T08:17:40;100483.94;;;20.90;nan
43814;BME280;29669;55.706;37.656;2023-05-12T08:20:09;100476.41;;;20.94;nan
43814;BME280;29669;55.706;37.656;2023-05-12T08:22:37;100481.25;;;20.97;nan
43814;BME280;29669;55.706;37.656;2023-05-12T08:25:06;100489.00;;;20.92;nan
43814;BME280;29669;55.706;37.656;2023-05-12T08:27:37;100484.16;;;20.89;nan
43814;BME280;29669;55.706;37.656;2023-05-12T08:30:05;100473.00;;;20.87;nan
43814;BME280;29669;55.706;37.656;2023-05-12T08:32:33;100472.38;;;20.91;nan
43814;BME280;29669;55.706;37.656;2023-05-12T08:35:00;100482.72;;;20.93;nan
43814;BME280;29669;55.706;37.656;2023-05-12T08:37:30;100470.72;;;20.97;nan
43814;BME280;29669;55.706;37.656;2023-05-12T08:40:00;100483.31;;;20.95;nan
43814;BME280;29669;55.706;37.656;2023-05-12T08:42:41;100472.16;;;20.93;nan
43814;BME280;29669;55.706;37.656;2023-05-12T08:45:10;100466.44;;;20.96;nan
43814;BME280;29669;55.706;37.656;2023-05-12T08:47:39;100466.63;;;21.01;nan
43814;BME280;29669;55.706;37.656;2023-05-12T08:50:09;100457.97;;;21.18;nan
43814;BME280;29669;55.706;37.656;2023-05-12T08:52:37;100456.28;;;21.30;nan
43814;BME280;29669;55.706;37.656;2023-05-12T08:55:06;100461.66;;;21.42;nan
43814;BME280;29669;55.706;37.656;2023-05-12T08:57:36;100458.56;;;21.70;nan
43814;BME280;29669;55.706;37.656;2023-05-12T09:00:06;100460.44;;;22.05;nan
43814;BME280;29669;55.706;37.656;2023-05-12T09:02:36;100445.91;;;22.32;nan
43814;BME280;29669;55.706;37.656;2023-05-12T09:05:18;100457.81;;;22.60;nan
43814;BME280;29669;55.706;37.656;2023-05-12T09:07:47;100451.88;;;22.76;nan
43814;BME280;29669;55.706;37.656;2023-05-12T09:10:17;100440.22;;;22.77;nan
43814;BME280;29669;55.706;37.656;2023-05-12T09:13:16;100443.28;;;22.62;nan
43814;BME280;29669;55.706;37.656;2023-05-12T09:15:46;100439.03;;;22.61;nan
43814;BME280;29669;55.706;37.656;2023-05-12T09:18:15;100445.41;;;22.72;nan
43814;BME280;29669;55.706;37.656;2023-05-12T09:20:42;100444.03;;;22.81;nan
43814;BME280;29669;55.706;37.656;2023-05-12T09:23:18;100436.47;;;22.84;nan
43814;BME280;29669;55.706;37.656;2023-05-12T09:25:46;100437.63;;;22.88;nan
43814;BME280;29669;55.706;37.656;2023-05-12T09:28:33;100436.75;;;23.06;nan
43814;BME280;29669;55.706;37.656;2023-05-12T09:31:01;100429.50;;;23.24;nan
43814;BME280;29669;55.706;37.656;2023-05-12T09:33:33;100433.38;;;23.63;nan
43814;BME280;29669;55.706;37.656;2023-05-12T09:36:01;100436.34;;;24.01;nan
43814;BME280;29669;55.706;37.656;2023-05-12T09:38:28;100428.47;;;24.18;nan
43814;BME280;29669;55.706;37.656;2023-05-12T09:40:56;100426.03;;;24.28;nan
43814;BME280;29669;55.706;37.656;2023-05-12T09:43:24;100418.81;;;24.40;nan
43814;BME280;29669;55.706;37.656;2023-05-12T09:45:52;100419.38;;;24.42;nan
43814;BME280;29669;55.706;37.656;2023-05-12T09:48:21;100429.38;;;24.52;nan
43814;BME280;29669;55.706;37.656;2023-05-12T09:50:51;100417.66;;;24.64;nan
43814;BME280;29669;55.706;37.656;2023-05-12T09:53:19;100420.28;;;24.48;nan
43814;BME280;29669;55.706;37.656;2023-05-12T09:55:49;100424.91;;;24.69;nan
43814;BME280;29669;55.706;37.656;2023-05-12T09:58:18;100422.31;;;24.85;nan
43814;BME280;29669;55.706;37.656;2023-05-12T10:00:46;100423.25;;;24.79;nan
43814;BME280;29669;55.706;37.656;2023-05-12T10:03:37;100418.38;;;24.88;nan
43814;BME280;29669;55.706;37.656;2023-05-12T10:06:10;100412.50;;;24.86;nan
43814;BME280;29669;55.706;37.656;2023-05-12T10:08:43;100420.72;;;25.01;nan
43814;BME280;29669;55.706;37.656;2023-05-12T10:11:14;100418.53;;;25.14;nan
43814;BME280;29669;55.706;37.656;2023-05-12T10:13:42;100415.31;;;25.29;nan
43814;BME280;29669;55.706;37.656;2023-05-12T10:16:10;100420.06;;;25.27;nan
43814;BME280;29669;55.706;37.656;2023-05-12T10:18:41;100403.81;;;25.07;nan
43814;BME280;29669;55.706;37.656;2023-05-12T10:21:11;100408.56;;;25.05;nan
43814;BME280;29669;55.706;37.656;2023-05-12T10:23:39;100410.56;;;25.31;nan
43814;BME280;29669;55.706;37.656;2023-05-12T10:26:11;100408.47;;;25.33;nan
43814;BME280;29669;55.706;37.656;2023-05-12T10:28:40;100402.84;;;25.30;nan
43814;BME280;29669;55.706;37.656;2023-05-12T10:31:09;100403.97;;;25.34;nan
43814;BME280;29669;55.706;37.656;2023-05-12T10:33:37;100405.81;;;25.33;nan
43814;BME280;29669;55.706;37.656;2023-05-12T10:36:18;100411.84;;;25.29;nan
43814;BME280;29669;55.706;37.656;2023-05-12T10:38:47;100398.50;;;25.24;nan
43814;BME280;29669;55.706;37.656;2023-05-12T10:41:37;100409.84;;;25.36;nan
43814;BME280;29669;55.706;37.656;2023-05-12T10:44:05;100408.47;;;25.50;nan
43814;BME280;29669;55.706;37.656;2023-05-12T10:46:33;100418.84;;;25.51;nan
43814;BME280;29669;55.706;37.656;2023-05-12T10:49:05;100402.91;;;25.35;nan
43814;BME280;29669;55.706;37.656;2023-05-12T10:51:46;100411.53;;;25.25;nan
43814;BME280;29669;55.706;37.656;2023-05-12T10:54:20;100412.50;;;24.86;nan
43814;BME280;29669;55.706;37.656;2023-05-12T10:56:51;100409.53;;;24.54;nan
43814;BME280;29669;55.706;37.656;2023-05-12T10:59:22;100405.41;;;24.18;nan
43814;BME280;29669;55.706;37.656;2023-05-12T11:02:05;100406.13;;;24.02;nan
43814;BME280;29669;55.706;37.656;2023-05-12T11:04:51;100409.69;;;23.96;nan
43814;BME280;29669;55.706;37.656;2023-05-12T11:07:27;100406.69;;;23.93;nan
43814;BME280;29669;55.706;37.656;2023-05-12T11:10:01;100405.09;;;24.03;nan
43814;BME280;29669;55.706;37.656;2023-05-12T11:12:33;100408.09;;;24.07;nan
43814;BME280;29669;55.706;37.656;2023-05-12T11:15:03;100413.44;;;24.23;nan
43814;BME280;29669;55.706;37.656;2023-05-12T11:17:32;100409.47;;;24.38;nan
43814;BME280;29669;55.706;37.656;2023-05-12T11:20:00;100408.72;;;24.54;nan
43814;BME280;29669;55.706;37.656;2023-05-12T11:22:29;100410.47;;;24.76;nan
43814;BME280;29669;55.706;37.656;2023-05-12T11:24:57;100406.22;;;24.92;nan
43814;BME280;29669;55.706;37.656;2023-05-12T11:27:25;100411.53;;;24.92;nan
43814;BME280;29669;55.706;37.656;2023-05-12T11:30:00;100406.28;;;24.80;nan
43814;BME280;29669;55.706;37.656;2023-05-12T11:32:31;100405.88;;;24.72;nan
43814;BME280;29669;55.706;37.656;2023-05-12T11:35:15;100405.34;;;24.58;nan
43814;BME280;29669;55.706;37.656;2023-05-12T11:37:44;100399.56;;;24.61;nan
43814;BME280;29669;55.706;37.656;2023-05-12T11:40:17;100393.63;;;24.71;nan
43814;BME280;29669;55.706;37.656;2023-05-12T11:42:47;100403.97;;;24.84;nan
43814;BME280;29669;55.706;37.656;2023-05-12T11:45:25;100391.75;;;24.99;nan
43814;BME280;29669;55.706;37.656;2023-05-12T11:48:14;100395.13;;;25.28;nan
43814;BME280;29669;55.706;37.656;2023-05-12T11:50:44;100385.25;;;25.62;nan
43814;BME280;29669;55.706;37.656;2023-05-12T11:53:17;100381.84;;;25.66;nan
43814;BME280;29669;55.706;37.656;2023-05-12T11:55:54;100379.44;;;25.65;nan
43814;BME280;29669;55.706;37.656;2023-05-12T11:58:25;100374.66;;;25.67;nan
43814;BME280;29669;55.706;37.656;2023-05-12T12:00:53;100381.84;;;25.66;nan
43814;BME280;29669;55.706;37.656;2023-05-12T12:03:23;100371.69;;;25.63;nan
43814;BME280;29669;55.706;37.656;2023-05-12T12:06:02;100378.09;;;25.84;nan
43814;BME280;29669;55.706;37.656;2023-05-12T12:08:30;100381.59;;;25.89;nan
43814;BME280;29669;55.706;37.656;2023-05-12T12:10:58;100366.63;;;25.83;nan
43814;BME280;29669;55.706;37.656;2023-05-12T12:13:28;100381.59;;;25.89;nan
43814;BME280;29669;55.706;37.656;2023-05-12T12:15:55;100377.06;;;26.06;nan
43814;BME280;29669;55.706;37.656;2023-05-12T12:18:23;100366.16;;;26.35;nan
43814;BME280;29669;55.706;37.656;2023-05-12T12:20:51;100364.81;;;26.85;nan
43814;BME280;29669;55.706;37.656;2023-05-12T12:23:19;100347.44;;;27.20;nan
43814;BME280;29669;55.706;37.656;2023-05-12T12:25:47;100351.66;;;27.47;nan
43814;BME280;29669;55.706;37.656;2023-05-12T12:28:15;100355.97;;;27.53;nan
43814;BME280;29669;55.706;37.656;2023-05-12T12:30:42;100360.84;;;27.71;nan
43814;BME280;29669;55.706;37.656;2023-05-12T12:33:10;100350.09;;;27.61;nan
43814;BME280;29669;55.706;37.656;2023-05-12T12:35:38;100348.03;;;27.68;nan
43814;BME280;29669;55.706;37.656;2023-05-12T12:38:06;100346.41;;;28.44;nan
43814;BME280;29669;55.706;37.656;2023-05-12T12:40:41;100346.38;;;29.30;nan
43814;BME280;29669;55.706;37.656;2023-05-12T12:43:09;100349.00;;;29.50;nan
43814;BME280;29669;55.706;37.656;2023-05-12T12:45:36;100349.38;;;28.78;nan
43814;BME280;29669;55.706;37.656;2023-05-12T12:48:05;100353.97;;;27.90;nan
43814;BME280;29669;55.706;37.656;2023-05-12T12:50:34;100350.34;;;27.50;nan
43814;BME280;29669;55.706;37.656;2023-05-12T12:53:02;100344.09;;;27.91;nan
43814;BME280;29669;55.706;37.656;2023-05-12T12:55:30;100348.78;;;28.41;nan
43814;BME280;29669;55.706;37.656;2023-05-12T12:57:58;100346.13;;;28.56;nan
43814;BME280;29669;55.706;37.656;2023-05-12T13:00:26;100340.28;;;28.79;nan
43814;BME280;29669;55.706;37.656;2023-05-12T13:02:54;100348.56;;;28.83;nan
43814;BME280;29669;55.706;37.656;2023-05-12T13:05:22;100340.78;;;28.46;nan
43814;BME280;29669;55.706;37.656;2023-05-12T13:07:50;100333.75;;;28.00;nan
43814;BME280;29669;55.706;37.656;2023-05-12T13:10:18;100333.94;;;27.78;nan
43814;BME280;29669;55.706;37.656;2023-05-12T13:12:46;100333.13;;;27.82;nan
43814;BME280;29669;55.706;37.656;2023-05-12T13:15:14;100332.84;;;27.79;nan
43814;BME280;29669;55.706;37.656;2023-05-12T13:17:44;100326.97;;;27.77;nan
43814;BME280;29669;55.706;37.656;2023-05-12T13:20:15;100327.25;;;27.75;nan
43814;BME280;29669;55.706;37.656;2023-05-12T13:22:43;100329.91;;;27.70;nan
43814;BME280;29669;55.706;37.656;2023-05-12T13:25:11;100329.63;;;27.72;nan
43814;BME280;29669;55.706;37.656;2023-05-12T13:27:39;100323.22;;;27.73;nan